Time;durP1;ratioP1;P1;durP2;ratioP2;P2;SDS_P1;SDS_P2;PMS_P1;PMS_P2;Temp;Humidity;BMP_temperature;BMP_pressure;BME280_temperature;BME280_humidity;BME280_pressure;Samples;Min_cycle;Max_cycle;Signal;HPM_P1;HPM_P2
2021/07/02 00:00:07;;;;;;;24.88;19.65;;;;;;;;;;348188;28;67818;-74
2021/07/02 00:00:20;;;;;;;23.42;18.88;;;;;;;;;;345919;28;136601;-74
2021/07/02 00:00:33;;;;;;;24.05;19.15;;;;;;;;;;350299;28;46254;-74
2021/07/02 00:00:45;;;;;;;25.70;19.98;;;;;;;;;;348125;28;70046;-74
2021/07/02 00:00:57;;;;;;;25.72;20.08;;;;;;;;;;347568;28;47253;-74
2021/07/02 00:01:10;;;;;;;25.38;20.10;;;;;;;;;;347552;28;44477;-74
2021/07/02 00:01:23;;;;;;;23.95;19.92;;;;;;;;;;348074;28;70157;-74
2021/07/02 00:01:36;;;;;;;23.88;19.60;;;;;;;;;;346840;28;69034;-74
2021/07/02 00:01:49;;;;;;;23.77;19.65;;;;;;;;;;347394;28;68993;-75
2021/07/02 00:02:02;;;;;;;23.80;19.83;;;;;;;;;;348084;28;70317;-75
2021/07/02 00:02:16;;;;;;;24.40;20.02;;;;;;;;;;347149;28;70219;-74
2021/07/02 00:02:28;;;;;;;25.00;20.25;;;;;;;;;;346097;28;91987;-74
2021/07/02 00:02:41;;;;;;;24.92;20.02;;;;;;;;;;347708;28;45419;-75
2021/07/02 00:02:53;;;;;;;24.27;19.95;;;;;;;;;;345556;28;69059;-74
2021/07/02 00:03:06;;;;;;;25.38;20.02;;;;;;;;;;346401;28;46085;-74
2021/07/02 00:03:18;;;;;;;23.05;19.42;;;;;;;;;;344369;28;67918;-74
2021/07/02 00:03:31;;;;;;;23.28;19.26;;;;;;;;;;344920;28;47618;-74
2021/07/02 00:03:43;;;;;;;25.55;19.55;;;;;;;;;;344957;28;47137;-74
2021/07/02 00:03:56;;;;;;;26.88;20.02;;;;;;;;;;344168;28;69021;-75
2021/07/02 00:04:08;;;;;;;24.17;20.08;;;;;;;;;;348164;28;46057;-74
2021/07/02 00:04:21;;;;;;;23.83;19.75;;;;;;;;;;348348;28;66509;-73
2021/07/02 00:04:34;;;;;;;24.85;19.75;;;;;;;;;;346873;28;68975;-73
2021/07/02 00:04:46;;;;;;;24.85;19.55;;;;;;;;;;347608;28;46051;-73
2021/07/02 00:04:58;;;;;;;23.67;19.20;;;;;;;;;;346731;28;68298;-73
2021/07/02 00:05:11;;;;;;;21.92;18.77;;;;;;;;;;346190;28;46128;-73
2021/07/02 00:05:24;;;;;;;23.70;19.13;;;;;;;;;;345513;28;68873;-73
2021/07/02 00:05:36;;;;;;;24.58;19.67;;;;;;;;;;345431;28;70025;-73
2021/07/02 00:05:49;;;;;;;23.85;19.85;;;;;;;;;;346291;28;46114;-73
2021/07/02 00:06:01;;;;;;;23.77;19.20;;;;;;;;;;343955;28;69025;-74
2021/07/02 00:06:14;;;;;;;24.60;19.33;;;;;;;;;;346126;28;45330;-73
2021/07/02 00:06:26;;;;;;;24.25;19.15;;;;;;;;;;345134;28;69014;-73
2021/07/02 00:06:38;;;;;;;23.00;18.77;;;;;;;;;;347670;28;46158;-73
2021/07/02 00:06:51;;;;;;;23.38;18.85;;;;;;;;;;346857;28;70395;-73
2021/07/02 00:07:03;;;;;;;23.50;18.80;;;;;;;;;;347521;28;44900;-73
2021/07/02 00:07:16;;;;;;;23.48;18.70;;;;;;;;;;348725;28;67812;-73
2021/07/02 00:07:28;;;;;;;23.65;18.40;;;;;;;;;;350361;28;47292;-74
2021/07/02 00:07:41;;;;;;;23.15;18.58;;;;;;;;;;349577;28;68985;-74
2021/07/02 00:07:54;;;;;;;23.45;18.65;;;;;;;;;;349894;28;70449;-74
2021/07/02 00:08:06;;;;;;;23.98;18.58;;;;;;;;;;351434;27;44984;-74
2021/07/02 00:08:25;;;;;;;23.73;19.20;;;;;;;;;;350929;27;67770;-74
2021/07/02 00:08:38;;;;;;;24.15;19.70;;;;;;;;;;348545;27;139035;-74
2021/07/02 00:08:50;;;;;;;25.27;19.88;;;;;;;;;;352200;27;47124;-74
2021/07/02 00:09:03;;;;;;;22.48;19.23;;;;;;;;;;350919;27;68919;-74
2021/07/02 00:09:15;;;;;;;23.45;19.15;;;;;;;;;;351058;27;68852;-73
2021/07/02 00:09:28;;;;;;;26.25;19.42;;;;;;;;;;351920;27;46117;-73
2021/07/02 00:09:40;;;;;;;26.65;19.83;;;;;;;;;;349507;28;66120;-73
2021/07/02 00:09:53;;;;;;;24.00;19.77;;;;;;;;;;349592;28;69121;-73
2021/07/02 00:10:06;;;;;;;23.10;19.70;;;;;;;;;;349327;28;46868;-75
2021/07/02 00:10:19;;;;;;;23.63;19.38;;;;;;;;;;347470;28;92091;-74
2021/07/02 00:10:31;;;;;;;23.02;18.98;;;;;;;;;;347507;28;46048;-74
2021/07/02 00:10:44;;;;;;;22.45;19.02;;;;;;;;;;346866;28;68929;-74
2021/07/02 00:10:56;;;;;;;22.70;18.80;;;;;;;;;;347695;28;45392;-74
2021/07/02 00:11:09;;;;;;;23.88;18.88;;;;;;;;;;346984;28;69160;-74
2021/07/02 00:11:21;;;;;;;24.40;19.10;;;;;;;;;;347780;28;47243;-74
2021/07/02 00:11:34;;;;;;;24.15;19.40;;;;;;;;;;346873;28;69922;-74
2021/07/02 00:11:46;;;;;;;24.27;19.02;;;;;;;;;;348651;28;46174;-76
2021/07/02 00:11:59;;;;;;;23.98;19.58;;;;;;;;;;348165;28;68387;-74
2021/07/02 00:12:11;;;;;;;23.63;19.80;;;;;;;;;;350219;28;46287;-74
2021/07/02 00:12:24;;;;;;;26.15;19.70;;;;;;;;;;349632;28;67898;-74
2021/07/02 00:12:36;;;;;;;25.65;19.45;;;;;;;;;;349576;28;70204;-74
2021/07/02 00:12:49;;;;;;;23.67;19.75;;;;;;;;;;349570;28;67831;-74
2021/07/02 00:13:02;;;;;;;23.80;20.20;;;;;;;;;;348288;28;70058;-75
2021/07/02 00:13:15;;;;;;;24.25;20.35;;;;;;;;;;348964;28;47163;-74
2021/07/02 00:13:27;;;;;;;23.98;20.27;;;;;;;;;;348569;28;68745;-74
2021/07/02 00:13:40;;;;;;;24.27;19.85;;;;;;;;;;348286;28;67734;-74
2021/07/02 00:13:52;;;;;;;25.45;19.70;;;;;;;;;;349017;28;47496;-75
2021/07/02 00:14:06;;;;;;;26.13;19.80;;;;;;;;;;348297;28;67398;-74
2021/07/02 00:14:19;;;;;;;26.23;20.25;;;;;;;;;;346646;28;68816;-74
2021/07/02 00:14:31;;;;;;;25.48;20.40;;;;;;;;;;346763;28;69032;-74
2021/07/02 00:14:44;;;;;;;25.30;20.42;;;;;;;;;;346873;28;70407;-74
2021/07/02 00:14:56;;;;;;;25.42;20.38;;;;;;;;;;346575;28;45407;-74
2021/07/02 00:15:09;;;;;;;26.73;20.35;;;;;;;;;;345561;28;68986;-75
2021/07/02 00:15:21;;;;;;;26.05;20.35;;;;;;;;;;345401;28;69027;-74
2021/07/02 00:15:34;;;;;;;26.52;20.42;;;;;;;;;;346511;28;46123;-75
2021/07/02 00:15:47;;;;;;;25.08;19.83;;;;;;;;;;345858;28;68980;-74
2021/07/02 00:15:59;;;;;;;24.35;20.02;;;;;;;;;;344007;28;69024;-74
2021/07/02 00:16:12;;;;;;;23.88;20.13;;;;;;;;;;345046;28;45159;-74
2021/07/02 00:16:24;;;;;;;24.67;19.85;;;;;;;;;;345338;28;68978;-74
2021/07/02 00:16:37;;;;;;;24.55;19.58;;;;;;;;;;345316;28;69170;-74
2021/07/02 00:16:50;;;;;;;24.08;19.52;;;;;;;;;;347580;28;46256;-73
2021/07/02 00:17:02;;;;;;;23.88;19.48;;;;;;;;;;346736;28;69988;-73
2021/07/02 00:17:15;;;;;;;24.33;19.73;;;;;;;;;;346840;28;67774;-73
2021/07/02 00:17:27;;;;;;;23.85;20.13;;;;;;;;;;348095;28;70127;-75
2021/07/02 00:17:40;;;;;;;24.88;20.23;;;;;;;;;;349077;28;46218;-74
2021/07/02 00:17:52;;;;;;;23.75;19.98;;;;;;;;;;348526;28;45421;-74
2021/07/02 00:18:05;;;;;;;22.80;19.25;;;;;;;;;;348611;28;70159;-74
2021/07/02 00:18:17;;;;;;;23.52;19.55;;;;;;;;;;350648;28;45874;-74
2021/07/02 00:18:29;;;;;;;24.83;20.05;;;;;;;;;;350929;27;69022;-74
2021/07/02 00:18:42;;;;;;;24.90;19.75;;;;;;;;;;351867;27;45909;-74
2021/07/02 00:18:54;;;;;;;24.40;19.55;;;;;;;;;;351294;27;70697;-73
2021/07/02 00:19:07;;;;;;;24.13;19.60;;;;;;;;;;351758;27;46172;-74
2021/07/02 00:19:20;;;;;;;23.15;19.30;;;;;;;;;;352149;27;68903;-73
2021/07/02 00:19:33;;;;;;;23.25;18.75;;;;;;;;;;349957;28;68329;-74
2021/07/02 00:19:46;;;;;;;24.67;18.88;;;;;;;;;;349496;28;70305;-74
2021/07/02 00:19:58;;;;;;;24.70;19.33;;;;;;;;;;349891;28;70330;-74
2021/07/02 00:20:11;;;;;;;23.80;19.48;;;;;;;;;;349009;28;46229;-76
2021/07/02 00:20:23;;;;;;;24.13;19.48;;;;;;;;;;346880;28;70536;-74
2021/07/02 00:20:36;;;;;;;23.35;19.23;;;;;;;;;;346842;28;68993;-74
2021/07/02 00:20:49;;;;;;;23.52;19.27;;;;;;;;;;347761;28;46068;-73
2021/07/02 00:21:01;;;;;;;23.75;19.48;;;;;;;;;;346633;28;67844;-73
2021/07/02 00:21:13;;;;;;;23.50;19.52;;;;;;;;;;346731;28;67846;-73
2021/07/02 00:21:26;;;;;;;24.65;19.80;;;;;;;;;;347604;28;45305;-73
2021/07/02 00:21:39;;;;;;;24.88;19.70;;;;;;;;;;348004;28;70525;-73
2021/07/02 00:21:52;;;;;;;24.27;19.45;;;;;;;;;;348502;28;70365;-73
2021/07/02 00:22:04;;;;;;;24.98;19.50;;;;;;;;;;348144;28;70555;-73
2021/07/02 00:22:17;;;;;;;25.27;19.58;;;;;;;;;;350321;28;46085;-74
2021/07/02 00:22:30;;;;;;;24.83;19.90;;;;;;;;;;349662;28;67811;-73
2021/07/02 00:22:42;;;;;;;23.05;19.70;;;;;;;;;;348158;28;68939;-73
2021/07/02 00:22:55;;;;;;;23.86;19.82;;;;;;;;;;348930;28;46981;-73
2021/07/02 00:23:07;;;;;;;25.60;20.02;;;;;;;;;;349098;28;46135;-75
2021/07/02 00:23:20;;;;;;;25.75;20.05;;;;;;;;;;348161;28;69006;-75
2021/07/02 00:23:33;;;;;;;25.38;20.58;;;;;;;;;;348416;28;69046;-74
2021/07/02 00:23:45;;;;;;;26.02;20.55;;;;;;;;;;349021;28;46257;-74
2021/07/02 00:23:58;;;;;;;27.73;20.65;;;;;;;;;;348165;28;69017;-74
2021/07/02 00:24:11;;;;;;;27.88;20.63;;;;;;;;;;347217;28;69053;-74
2021/07/02 00:24:24;;;;;;;26.83;20.58;;;;;;;;;;348316;28;68879;-75
2021/07/02 00:24:36;;;;;;;26.45;20.58;;;;;;;;;;349049;28;45406;-74
2021/07/02 00:24:49;;;;;;;26.55;20.63;;;;;;;;;;347952;28;68937;-74
2021/07/02 00:25:03;;;;;;;26.33;21.02;;;;;;;;;;348575;28;68993;-74
2021/07/02 00:25:16;;;;;;;25.17;20.77;;;;;;;;;;346082;28;92009;-75
2021/07/02 00:25:28;;;;;;;24.70;20.02;;;;;;;;;;346827;28;70994;-74
2021/07/02 00:25:41;;;;;;;24.68;19.78;;;;;;;;;;347609;28;45005;-74
2021/07/02 00:25:54;;;;;;;24.10;19.65;;;;;;;;;;347496;28;46903;-75
2021/07/02 00:26:06;;;;;;;23.95;19.70;;;;;;;;;;347163;28;70006;-74
2021/07/02 00:26:18;;;;;;;24.02;19.65;;;;;;;;;;347593;28;42679;-74
2021/07/02 00:26:31;;;;;;;25.08;19.95;;;;;;;;;;346816;28;68883;-75
2021/07/02 00:26:44;;;;;;;26.08;20.10;;;;;;;;;;347603;28;45152;-74
2021/07/02 00:26:56;;;;;;;24.95;19.83;;;;;;;;;;346984;28;70555;-74
2021/07/02 00:27:08;;;;;;;23.30;19.27;;;;;;;;;;347634;28;47583;-75
2021/07/02 00:27:21;;;;;;;23.08;19.40;;;;;;;;;;345361;28;66495;-74
2021/07/02 00:27:33;;;;;;;24.20;19.45;;;;;;;;;;344717;28;42861;-74
2021/07/02 00:27:46;;;;;;;24.38;19.83;;;;;;;;;;344109;28;68804;-75
2021/07/02 00:27:58;;;;;;;25.05;19.98;;;;;;;;;;344979;28;47504;-74
2021/07/02 00:28:10;;;;;;;24.63;20.08;;;;;;;;;;344071;28;70016;-74
2021/07/02 00:28:23;;;;;;;25.00;19.98;;;;;;;;;;346248;28;47491;-74
2021/07/02 00:28:37;;;;;;;24.80;19.95;;;;;;;;;;346232;28;68994;-74
2021/07/02 00:28:49;;;;;;;23.35;19.27;;;;;;;;;;345914;28;93388;-74
2021/07/02 00:29:04;;;;;;;24.25;19.83;;;;;;;;;;345265;28;113575;-75
2021/07/02 00:29:17;;;;;;;25.45;20.35;;;;;;;;;;347650;28;45421;-74
2021/07/02 00:29:29;;;;;;;26.90;21.10;;;;;;;;;;348081;28;67868;-74
2021/07/02 00:29:41;;;;;;;27.98;21.95;;;;;;;;;;350319;28;46060;-74
2021/07/02 00:29:54;;;;;;;26.73;22.45;;;;;;;;;;348341;28;70108;-74
2021/07/02 00:30:06;;;;;;;24.88;21.42;;;;;;;;;;349040;28;46073;-74
2021/07/02 00:30:19;;;;;;;24.95;20.67;;;;;;;;;;348260;28;68980;-74
2021/07/02 00:30:35;;;;;;;25.92;20.75;;;;;;;;;;349864;28;69511;-74
2021/07/02 00:30:48;;;;;;;25.27;21.40;;;;;;;;;;347959;28;115121;-74
2021/07/02 00:31:00;;;;;;;25.77;21.33;;;;;;;;;;349482;28;70009;-74
2021/07/02 00:31:13;;;;;;;25.92;21.05;;;;;;;;;;349588;28;70164;-73
2021/07/02 00:31:25;;;;;;;26.27;21.40;;;;;;;;;;349540;27;70378;-74
2021/07/02 00:31:38;;;;;;;25.63;21.38;;;;;;;;;;350300;28;46204;-74
2021/07/02 00:31:51;;;;;;;24.88;20.95;;;;;;;;;;349672;28;69031;-74
2021/07/02 00:32:03;;;;;;;24.98;20.60;;;;;;;;;;349667;28;70134;-73
2021/07/02 00:32:16;;;;;;;26.33;20.98;;;;;;;;;;348797;28;46065;-74
2021/07/02 00:32:28;;;;;;;26.73;20.90;;;;;;;;;;348341;28;68958;-73
2021/07/02 00:32:41;;;;;;;25.83;20.90;;;;;;;;;;347712;28;47295;-74
2021/07/02 00:32:53;;;;;;;26.10;21.35;;;;;;;;;;345268;28;70030;-74
2021/07/02 00:33:06;;;;;;;25.50;21.13;;;;;;;;;;346203;28;45422;-74
2021/07/02 00:33:19;;;;;;;25.80;21.15;;;;;;;;;;344892;28;92033;-74
2021/07/02 00:33:32;;;;;;;26.35;21.20;;;;;;;;;;345310;28;69002;-75
2021/07/02 00:33:45;;;;;;;25.65;21.15;;;;;;;;;;346265;28;46111;-74
2021/07/02 00:33:57;;;;;;;25.27;21.17;;;;;;;;;;345378;28;70917;-73
2021/07/02 00:34:10;;;;;;;23.90;20.90;;;;;;;;;;345460;28;67824;-73
2021/07/02 00:34:22;;;;;;;24.17;20.75;;;;;;;;;;346298;28;46116;-75
2021/07/02 00:34:35;;;;;;;24.83;20.35;;;;;;;;;;346804;28;67772;-74
2021/07/02 00:34:47;;;;;;;26.30;20.27;;;;;;;;;;347543;28;45427;-74
2021/07/02 00:35:00;;;;;;;25.58;20.40;;;;;;;;;;346756;28;70098;-74
2021/07/02 00:35:12;;;;;;;25.77;20.45;;;;;;;;;;345380;28;69490;-75
2021/07/02 00:35:25;;;;;;;26.08;20.13;;;;;;;;;;346281;28;46850;-74
2021/07/02 00:35:37;;;;;;;28.65;20.15;;;;;;;;;;345411;28;70053;-73
2021/07/02 00:35:50;;;;;;;27.96;20.26;;;;;;;;;;346332;28;44306;-75
2021/07/02 00:36:03;;;;;;;27.40;20.55;;;;;;;;;;346134;28;46094;-74
2021/07/02 00:36:15;;;;;;;25.00;20.63;;;;;;;;;;347265;28;69040;-74
2021/07/02 00:36:28;;;;;;;26.73;20.65;;;;;;;;;;348204;28;70053;-74
2021/07/02 00:36:40;;;;;;;26.83;20.58;;;;;;;;;;347588;28;43422;-74
2021/07/02 00:36:52;;;;;;;26.83;20.70;;;;;;;;;;346123;28;46566;-74
2021/07/02 00:37:05;;;;;;;27.58;21.20;;;;;;;;;;346888;28;69138;-74
2021/07/02 00:37:17;;;;;;;26.67;21.20;;;;;;;;;;347593;28;45399;-73
2021/07/02 00:37:30;;;;;;;25.92;21.17;;;;;;;;;;346980;28;69007;-74
2021/07/02 00:37:42;;;;;;;25.35;21.27;;;;;;;;;;347778;28;46087;-74
2021/07/02 00:37:55;;;;;;;24.20;20.48;;;;;;;;;;348094;28;68957;-73
2021/07/02 00:38:07;;;;;;;23.67;19.77;;;;;;;;;;349323;28;46720;-74
2021/07/02 00:38:20;;;;;;;25.02;19.80;;;;;;;;;;348130;28;69041;-73
2021/07/02 00:38:32;;;;;;;26.58;20.45;;;;;;;;;;348110;28;70065;-75
2021/07/02 00:38:44;;;;;;;27.08;20.80;;;;;;;;;;348915;28;45942;-73
2021/07/02 00:38:57;;;;;;;27.10;20.67;;;;;;;;;;350227;28;45417;-73
2021/07/02 00:39:09;;;;;;;28.10;20.73;;;;;;;;;;350427;27;69023;-74
2021/07/02 00:39:22;;;;;;;28.20;20.50;;;;;;;;;;349204;28;47158;-74
2021/07/02 00:39:34;;;;;;;27.23;20.42;;;;;;;;;;349394;28;70027;-74
2021/07/02 00:39:47;;;;;;;28.56;20.06;;;;;;;;;;350406;28;47259;-74
2021/07/02 00:39:59;;;;;;;26.23;20.23;;;;;;;;;;350109;28;46583;-74
2021/07/02 00:40:12;;;;;;;24.10;20.33;;;;;;;;;;349577;28;70453;-74
2021/07/02 00:40:25;;;;;;;24.20;20.20;;;;;;;;;;348992;28;46286;-73
2021/07/02 00:40:38;;;;;;;24.92;20.50;;;;;;;;;;349246;28;46053;-74
2021/07/02 00:40:51;;;;;;;28.17;20.73;;;;;;;;;;347415;28;92002;-74
2021/07/02 00:41:03;;;;;;;28.40;20.77;;;;;;;;;;348457;28;68319;-74
2021/07/02 00:41:16;;;;;;;25.95;20.73;;;;;;;;;;347942;28;47217;-72
2021/07/02 00:41:28;;;;;;;25.42;20.92;;;;;;;;;;348070;28;68988;-74
2021/07/02 00:41:41;;;;;;;24.42;20.38;;;;;;;;;;348970;28;47470;-74
2021/07/02 00:41:53;;;;;;;25.00;20.15;;;;;;;;;;348316;28;68978;-73
2021/07/02 00:42:06;;;;;;;25.27;20.17;;;;;;;;;;350071;28;47176;-74
2021/07/02 00:42:18;;;;;;;24.15;20.00;;;;;;;;;;349699;28;67840;-73
2021/07/02 00:42:30;;;;;;;23.35;19.73;;;;;;;;;;351627;28;45397;-73
2021/07/02 00:42:43;;;;;;;25.10;19.98;;;;;;;;;;349632;28;68529;-74
2021/07/02 00:42:55;;;;;;;24.73;19.90;;;;;;;;;;350769;28;45466;-73
2021/07/02 00:43:08;;;;;;;25.20;20.30;;;;;;;;;;349686;28;67892;-73
2021/07/02 00:43:20;;;;;;;25.23;20.20;;;;;;;;;;350420;28;47608;-72
2021/07/02 00:43:32;;;;;;;25.60;20.27;;;;;;;;;;348961;28;43303;-73
2021/07/02 00:43:52;;;;;;;24.90;19.75;;;;;;;;;;348292;28;70081;-74
2021/07/02 00:44:05;;;;;;;24.15;19.33;;;;;;;;;;344580;28;137602;-72
2021/07/02 00:44:35;;;;;;;23.50;19.45;;;;;;;;;;347483;28;45343;-73
2021/07/02 00:44:48;;;;;;;25.60;19.65;;;;;;;;;;343969;28;160374;-73
2021/07/02 00:45:00;;;;;;;25.48;19.70;;;;;;;;;;346885;28;68968;-74
2021/07/02 00:45:13;;;;;;;25.92;19.92;;;;;;;;;;347674;28;45586;-74
2021/07/02 00:45:26;;;;;;;25.08;20.35;;;;;;;;;;345610;28;68975;-74
2021/07/02 00:45:38;;;;;;;25.45;20.60;;;;;;;;;;346614;28;68997;-74
2021/07/02 00:45:51;;;;;;;24.88;20.52;;;;;;;;;;346800;28;69069;-74
2021/07/02 00:46:04;;;;;;;24.13;20.30;;;;;;;;;;347290;28;67766;-73
2021/07/02 00:46:17;;;;;;;23.86;20.46;;;;;;;;;;348920;28;46439;-74
2021/07/02 00:46:30;;;;;;;25.42;20.45;;;;;;;;;;348892;28;45021;-73
2021/07/02 00:46:42;;;;;;;25.45;20.27;;;;;;;;;;349485;28;70387;-73
2021/07/02 00:46:55;;;;;;;24.65;20.52;;;;;;;;;;349902;28;69010;-73
2021/07/02 00:47:08;;;;;;;26.17;20.90;;;;;;;;;;349620;28;69048;-73
2021/07/02 00:47:20;;;;;;;26.60;20.52;;;;;;;;;;349594;28;70356;-73
2021/07/02 00:47:36;;;;;;;25.05;19.75;;;;;;;;;;347799;28;115063;-73
2021/07/02 00:47:49;;;;;;;23.77;19.65;;;;;;;;;;349614;28;70246;-73
2021/07/02 00:48:03;;;;;;;24.52;20.02;;;;;;;;;;349065;28;92031;-73
2021/07/02 00:48:16;;;;;;;24.65;20.60;;;;;;;;;;349656;28;69003;-73
2021/07/02 00:48:28;;;;;;;25.83;20.83;;;;;;;;;;349638;28;68532;-73
2021/07/02 00:48:41;;;;;;;26.17;20.55;;;;;;;;;;350386;28;45406;-75
2021/07/02 00:48:54;;;;;;;25.90;20.13;;;;;;;;;;348604;28;68330;-73
2021/07/02 00:49:07;;;;;;;25.13;19.55;;;;;;;;;;349551;28;68467;-73
2021/07/02 00:49:19;;;;;;;24.67;19.35;;;;;;;;;;349487;28;70305;-73
2021/07/02 00:49:33;;;;;;;25.40;19.85;;;;;;;;;;348254;28;70150;-73
2021/07/02 00:49:46;;;;;;;26.25;19.65;;;;;;;;;;347339;28;90881;-74
2021/07/02 00:49:59;;;;;;;26.25;19.38;;;;;;;;;;349995;28;44924;-74
2021/07/02 00:50:11;;;;;;;24.30;19.38;;;;;;;;;;349544;28;67872;-74
2021/07/02 00:50:24;;;;;;;24.13;20.00;;;;;;;;;;349642;28;70078;-75
2021/07/02 00:50:36;;;;;;;25.40;20.05;;;;;;;;;;350422;28;46170;-74
2021/07/02 00:50:49;;;;;;;25.42;19.77;;;;;;;;;;347972;28;68969;-73
2021/07/02 00:51:03;;;;;;;24.05;19.95;;;;;;;;;;347101;28;66944;-74
2021/07/02 00:51:16;;;;;;;23.27;20.25;;;;;;;;;;347429;28;91964;-73
2021/07/02 00:51:30;;;;;;;24.00;20.17;;;;;;;;;;345395;28;66809;-74
2021/07/02 00:51:43;;;;;;;22.65;19.98;;;;;;;;;;344953;28;92093;-74
2021/07/02 00:51:55;;;;;;;22.60;20.20;;;;;;;;;;345373;28;68817;-75
2021/07/02 00:52:09;;;;;;;22.98;20.20;;;;;;;;;;346319;28;45975;-73
2021/07/02 00:52:22;;;;;;;23.70;19.90;;;;;;;;;;344822;28;92181;-76
2021/07/02 00:52:35;;;;;;;23.90;19.63;;;;;;;;;;346902;28;68956;-73
2021/07/02 00:52:48;;;;;;;23.17;19.63;;;;;;;;;;346260;28;92139;-75
2021/07/02 00:53:01;;;;;;;22.35;19.13;;;;;;;;;;349051;28;45400;-76
2021/07/02 00:53:14;;;;;;;25.13;19.05;;;;;;;;;;348870;28;91209;-74
2021/07/02 00:53:26;;;;;;;25.48;19.67;;;;;;;;;;350769;27;47447;-73
2021/07/02 00:53:40;;;;;;;24.08;19.58;;;;;;;;;;352823;27;69010;-73
2021/07/02 00:53:52;;;;;;;22.55;19.33;;;;;;;;;;351497;27;92001;-75
2021/07/02 00:54:05;;;;;;;23.48;19.42;;;;;;;;;;353236;27;46117;-74
2021/07/02 00:54:17;;;;;;;23.20;19.50;;;;;;;;;;352446;27;68290;-74
2021/07/02 00:54:31;;;;;;;23.45;19.90;;;;;;;;;;351826;27;44765;-74
2021/07/02 00:54:44;;;;;;;25.15;19.70;;;;;;;;;;348678;28;93128;-74
2021/07/02 00:54:57;;;;;;;25.85;19.42;;;;;;;;;;349641;28;67833;-74
2021/07/02 00:55:10;;;;;;;23.48;19.35;;;;;;;;;;349580;28;69105;-74
2021/07/02 00:55:23;;;;;;;22.75;19.58;;;;;;;;;;349864;28;68974;-74
2021/07/02 00:55:35;;;;;;;21.85;19.05;;;;;;;;;;349526;28;69010;-74
2021/07/02 00:55:48;;;;;;;23.40;19.38;;;;;;;;;;350401;28;44971;-74
2021/07/02 00:56:01;;;;;;;25.00;20.10;;;;;;;;;;348776;28;92116;-74
2021/07/02 00:56:18;;;;;;;25.55;20.27;;;;;;;;;;350395;28;46106;-75
2021/07/02 00:56:31;;;;;;;24.25;19.25;;;;;;;;;;347688;28;138123;-74
2021/07/02 00:56:43;;;;;;;23.63;19.02;;;;;;;;;;350402;28;45434;-74
2021/07/02 00:56:56;;;;;;;23.98;19.42;;;;;;;;;;349518;28;71402;-74
2021/07/02 00:57:09;;;;;;;24.35;19.48;;;;;;;;;;349571;28;67817;-74
2021/07/02 00:57:22;;;;;;;25.50;19.65;;;;;;;;;;349804;28;70076;-75
2021/07/02 00:57:36;;;;;;;25.52;19.90;;;;;;;;;;349654;28;69145;-74
2021/07/02 00:57:48;;;;;;;25.77;19.95;;;;;;;;;;348801;28;93117;-75
2021/07/02 00:58:01;;;;;;;25.23;19.85;;;;;;;;;;350355;28;45429;-75
2021/07/02 00:58:13;;;;;;;25.45;19.73;;;;;;;;;;348043;28;67874;-74
2021/07/02 00:58:31;;;;;;;25.76;19.50;;;;;;;;;;348889;28;45092;-74
2021/07/02 00:58:43;;;;;;;25.70;19.80;;;;;;;;;;346298;28;138986;-74
2021/07/02 00:58:56;;;;;;;24.63;19.52;;;;;;;;;;349384;28;68344;-75
2021/07/02 00:59:08;;;;;;;23.95;19.35;;;;;;;;;;349040;28;46162;-74
2021/07/02 00:59:21;;;;;;;23.96;19.28;;;;;;;;;;348862;28;45479;-74
2021/07/02 00:59:33;;;;;;;23.42;19.45;;;;;;;;;;349222;28;46088;-74
2021/07/02 00:59:46;;;;;;;24.75;19.52;;;;;;;;;;349917;28;67940;-74
2021/07/02 00:59:58;;;;;;;25.45;19.10;;;;;;;;;;350309;28;46091;-75
2021/07/02 01:00:11;;;;;;;25.23;19.13;;;;;;;;;;349538;28;68331;-74
2021/07/02 01:00:23;;;;;;;24.65;19.23;;;;;;;;;;350499;28;47256;-74
2021/07/02 01:00:36;;;;;;;23.15;19.55;;;;;;;;;;350504;28;67913;-74
2021/07/02 01:00:49;;;;;;;23.83;19.90;;;;;;;;;;349585;28;70080;-75
2021/07/02 01:01:01;;;;;;;24.52;19.96;;;;;;;;;;350389;28;45449;-74
2021/07/02 01:01:15;;;;;;;25.48;20.02;;;;;;;;;;351618;28;46557;-75
2021/07/02 01:01:28;;;;;;;24.38;19.42;;;;;;;;;;349328;28;117028;-75
2021/07/02 01:01:41;;;;;;;23.65;19.33;;;;;;;;;;350028;28;44604;-74
2021/07/02 01:01:54;;;;;;;23.42;19.25;;;;;;;;;;348510;28;68969;-74
2021/07/02 01:02:06;;;;;;;26.40;19.42;;;;;;;;;;346926;28;68532;-74
2021/07/02 01:02:19;;;;;;;26.32;19.24;;;;;;;;;;347874;28;45737;-74
2021/07/02 01:02:31;;;;;;;25.77;19.42;;;;;;;;;;347584;28;47471;-74
2021/07/02 01:02:44;;;;;;;24.73;19.40;;;;;;;;;;346716;28;68996;-75
2021/07/02 01:02:57;;;;;;;23.70;19.23;;;;;;;;;;346703;28;68527;-75
2021/07/02 01:03:10;;;;;;;23.77;19.20;;;;;;;;;;346761;28;69177;-74
2021/07/02 01:03:22;;;;;;;22.98;18.77;;;;;;;;;;346805;28;69059;-75
2021/07/02 01:03:35;;;;;;;23.20;19.35;;;;;;;;;;347670;28;47402;-74
2021/07/02 01:03:48;;;;;;;23.13;19.52;;;;;;;;;;346438;28;68983;-74
2021/07/02 01:04:01;;;;;;;24.10;19.67;;;;;;;;;;348029;28;70105;-75
2021/07/02 01:04:13;;;;;;;23.95;19.70;;;;;;;;;;348758;28;68989;-74
2021/07/02 01:04:26;;;;;;;24.00;19.48;;;;;;;;;;350466;28;46019;-74
2021/07/02 01:04:38;;;;;;;24.08;19.85;;;;;;;;;;349690;28;68492;-74
2021/07/02 01:04:51;;;;;;;24.13;20.17;;;;;;;;;;348949;28;46182;-74
2021/07/02 01:05:04;;;;;;;24.48;19.92;;;;;;;;;;348044;28;68535;-74
2021/07/02 01:05:19;;;;;;;25.17;19.85;;;;;;;;;;345779;28;138455;-74
2021/07/02 01:05:32;;;;;;;25.13;20.15;;;;;;;;;;349325;28;45015;-74
2021/07/02 01:05:44;;;;;;;24.02;19.98;;;;;;;;;;349443;28;68967;-74
2021/07/02 01:05:57;;;;;;;22.95;20.23;;;;;;;;;;348206;28;70498;-74
2021/07/02 01:06:10;;;;;;;24.63;20.35;;;;;;;;;;348019;28;68957;-74
2021/07/02 01:06:23;;;;;;;25.67;20.10;;;;;;;;;;348302;28;66871;-74
2021/07/02 01:06:35;;;;;;;26.77;19.95;;;;;;;;;;349023;28;45934;-74
2021/07/02 01:06:48;;;;;;;28.88;20.25;;;;;;;;;;348524;28;69067;-75
2021/07/02 01:07:00;;;;;;;28.67;20.38;;;;;;;;;;350393;28;45456;-75
2021/07/02 01:07:14;;;;;;;26.10;20.30;;;;;;;;;;348131;28;67867;-74
2021/07/02 01:07:26;;;;;;;25.40;19.98;;;;;;;;;;347380;28;93437;-75
2021/07/02 01:07:39;;;;;;;26.20;20.02;;;;;;;;;;348764;28;45415;-74
2021/07/02 01:07:52;;;;;;;26.00;19.38;;;;;;;;;;347682;28;91968;-74
2021/07/02 01:08:05;;;;;;;25.90;20.02;;;;;;;;;;350238;28;44919;-74
2021/07/02 01:08:18;;;;;;;24.10;20.17;;;;;;;;;;348889;28;91256;-74
2021/07/02 01:08:31;;;;;;;25.38;20.17;;;;;;;;;;348509;28;67954;-74
2021/07/02 01:08:44;;;;;;;26.05;20.10;;;;;;;;;;347599;28;46698;-74
2021/07/02 01:08:56;;;;;;;26.65;20.08;;;;;;;;;;345723;28;70014;-74
2021/07/02 01:09:09;;;;;;;25.85;19.48;;;;;;;;;;344131;28;70400;-74
2021/07/02 01:09:22;;;;;;;24.73;19.33;;;;;;;;;;346249;28;45623;-74
2021/07/02 01:09:34;;;;;;;24.85;19.60;;;;;;;;;;345416;28;68999;-74
2021/07/02 01:09:47;;;;;;;24.63;19.85;;;;;;;;;;345679;28;70547;-74
2021/07/02 01:09:59;;;;;;;24.77;19.88;;;;;;;;;;346354;28;46227;-74
2021/07/02 01:10:16;;;;;;;24.67;20.10;;;;;;;;;;345417;28;67834;-74
2021/07/02 01:10:29;;;;;;;25.52;19.95;;;;;;;;;;343149;28;138756;-74
2021/07/02 01:10:44;;;;;;;26.30;20.02;;;;;;;;;;347048;28;67900;-74
2021/07/02 01:10:57;;;;;;;25.13;20.15;;;;;;;;;;345721;28;114857;-74
2021/07/02 01:11:10;;;;;;;25.10;20.45;;;;;;;;;;347911;28;68978;-74
2021/07/02 01:11:22;;;;;;;26.83;20.65;;;;;;;;;;349495;28;69021;-74
2021/07/02 01:11:35;;;;;;;31.27;23.42;;;;;;;;;;348443;28;66179;-74
2021/07/02 01:11:47;;;;;;;32.17;25.92;;;;;;;;;;347673;28;45417;-74
2021/07/02 01:12:00;;;;;;;31.42;25.63;;;;;;;;;;346810;28;68984;-74
2021/07/02 01:12:13;;;;;;;31.30;25.42;;;;;;;;;;346774;28;69126;-75
2021/07/02 01:12:25;;;;;;;31.92;25.13;;;;;;;;;;346771;28;67884;-74
2021/07/02 01:12:39;;;;;;;30.17;24.17;;;;;;;;;;347726;28;46112;-74
2021/07/02 01:12:53;;;;;;;29.80;23.02;;;;;;;;;;345318;28;114824;-74
2021/07/02 01:13:06;;;;;;;33.20;24.02;;;;;;;;;;347829;28;47474;-74
2021/07/02 01:13:19;;;;;;;33.17;23.60;;;;;;;;;;345940;28;92003;-74
2021/07/02 01:13:32;;;;;;;30.20;22.98;;;;;;;;;;345068;28;69607;-74
2021/07/02 01:13:44;;;;;;;29.48;23.17;;;;;;;;;;346832;28;68760;-75
2021/07/02 01:13:57;;;;;;;29.38;23.73;;;;;;;;;;349099;28;47286;-75
2021/07/02 01:14:09;;;;;;;29.75;23.45;;;;;;;;;;347989;28;68848;-75
2021/07/02 01:14:21;;;;;;;29.75;23.08;;;;;;;;;;347700;28;46055;-74
2021/07/02 01:14:35;;;;;;;28.25;22.73;;;;;;;;;;346852;28;69042;-74
2021/07/02 01:14:47;;;;;;;28.65;22.25;;;;;;;;;;346675;28;68767;-74
2021/07/02 01:15:00;;;;;;;28.92;22.00;;;;;;;;;;346694;28;69007;-74
2021/07/02 01:15:19;;;;;;;29.60;22.05;;;;;;;;;;346116;28;44964;-75
2021/07/02 01:15:32;;;;;;;28.25;21.83;;;;;;;;;;343371;28;137641;-75
2021/07/02 01:15:51;;;;;;;28.05;22.65;;;;;;;;;;347963;28;46090;-74